createdAt,value
2022-11-04T00:00:48.593Z,95136.59
2022-11-04T00:03:15.690Z,95052.41
2022-11-04T00:05:42.546Z,95134.66
2022-11-04T00:08:24.691Z,95136.28
2022-11-04T00:11:18.033Z,95128.50
2022-11-04T00:13:45.851Z,95131.44
2022-11-04T00:16:31.748Z,95138.13
2022-11-04T00:19:00.666Z,95135.69
2022-11-04T00:21:46.994Z,95129.50
2022-11-04T00:24:33.094Z,95130.00
2022-11-04T00:27:18.425Z,95129.50
2022-11-04T00:29:45.498Z,95114.09
2022-11-04T00:32:30.865Z,95118.69
2022-11-04T00:34:57.751Z,95110.63
2022-11-04T00:37:26.292Z,95124.31
2022-11-04T00:39:53.258Z,95109.78
2022-11-04T00:42:20.057Z,95111.66
2022-11-04T00:44:47.033Z,95095.72
2022-11-04T00:47:13.870Z,95101.94
2022-11-04T00:49:40.814Z,95109.97
2022-11-04T00:52:07.689Z,95106.19
2022-11-04T00:54:34.551Z,95111.25
2022-11-04T00:57:01.558Z,95100.06
2022-11-04T00:59:28.564Z,95105.91
2022-11-04T01:01:56.125Z,95103.72
2022-11-04T01:04:23.240Z,95084.91
2022-11-04T01:06:50.046Z,95086.50
2022-11-04T01:09:16.965Z,95089.75
2022-11-04T01:11:43.862Z,95075.75
2022-11-04T01:14:10.749Z,95089.50
2022-11-04T01:16:38.103Z,95087.56
2022-11-04T01:19:05.071Z,95076.81
2022-11-04T01:21:31.930Z,95067.34
2022-11-04T01:24:00.310Z,95053.16
2022-11-04T01:26:28.871Z,95078.94
2022-11-04T01:28:57.768Z,95061.50
2022-11-04T01:31:27.721Z,95071.94
2022-11-04T01:33:55.917Z,95073.50
2022-11-04T01:36:23.461Z,95077.56
2022-11-04T01:38:50.657Z,95032.84
2022-11-04T01:41:27.034Z,95076.94
2022-11-04T01:43:55.493Z,95077.50
2022-11-04T01:46:28.411Z,95080.16
2022-11-04T01:49:04.899Z,95055.13
2022-11-04T01:51:36.602Z,95063.72
2022-11-04T01:54:05.957Z,95063.72
2022-11-04T01:56:33.289Z,95051.91
2022-11-04T01:59:11.608Z,95059.38
2022-11-04T02:01:38.626Z,95049.09
2022-11-04T02:04:24.089Z,95053.19
2022-11-04T02:07:03.579Z,95061.50
2022-11-04T02:09:32.574Z,95058.81
2022-11-04T02:12:18.433Z,95053.44
2022-11-04T02:14:47.995Z,95041.81
2022-11-04T02:17:17.790Z,95051.53
2022-11-04T02:20:18.958Z,95061.63
2022-11-04T02:23:08.146Z,95063.50
2022-11-04T02:25:35.745Z,95060.28
2022-11-04T02:28:23.602Z,95055.69
2022-11-04T02:30:54.849Z,95058.34
2022-11-04T02:33:50.433Z,95046.25
2022-11-04T02:36:42.013Z,95055.59
2022-11-04T02:39:37.280Z,95038.09
2022-11-04T02:42:24.502Z,95049.13
2022-11-04T02:45:06.776Z,95050.69
2022-11-04T02:47:40.188Z,95051.25
2022-11-04T02:50:54.412Z,95046.38
2022-11-04T02:53:28.237Z,95050.41
2022-11-04T02:55:58.614Z,94984.41
2022-11-04T02:58:45.374Z,95052.75
2022-11-04T03:01:17.377Z,95052.19
2022-11-04T03:04:04.333Z,95034.75
2022-11-04T03:06:32.678Z,95045.25
2022-11-04T03:09:01.965Z,95050.03
2022-11-04T03:11:29.566Z,95044.94
2022-11-04T03:14:01.913Z,95038.44
2022-11-04T03:16:38.333Z,95045.06
2022-11-04T03:19:16.380Z,95048.63
2022-11-04T03:21:53.484Z,95042.16
2022-11-04T03:24:20.558Z,95037.22
2022-11-04T03:26:54.792Z,95036.69
2022-11-04T03:29:35.034Z,95024.28
2022-11-04T03:32:13.986Z,95039.91
2022-11-04T03:34:41.187Z,95031.25
2022-11-04T03:37:08.486Z,95026.69
2022-11-04T03:39:35.553Z,95016.41
2022-11-04T03:42:20.340Z,95037.16
2022-11-04T03:44:56.533Z,95044.13
2022-11-04T03:47:29.436Z,95048.91
2022-11-04T03:50:08.085Z,95045.88
2022-11-04T03:52:36.036Z,95044.59
2022-11-04T03:55:04.636Z,95031.34
2022-11-04T03:57:56.518Z,95050.34
2022-11-04T04:00:25.413Z,95028.31
2022-11-04T04:03:18.288Z,95043.63
2022-11-04T04:05:54.104Z,95037.72
2022-11-04T04:08:39.067Z,95040.69
2022-11-04T04:11:23.309Z,95037.94
2022-11-04T04:14:34.766Z,95018.56
2022-11-04T04:17:06.830Z,95018.56
2022-11-04T04:19:35.020Z,95001.03
2022-11-04T04:22:10.968Z,95034.91
2022-11-04T04:25:01.526Z,95026.56
2022-11-04T04:27:32.387Z,95034.84
2022-11-04T04:30:12.459Z,95030.78
2022-11-04T04:33:01.745Z,95016.25
2022-11-04T04:35:43.330Z,95029.13
2022-11-04T04:38:38.470Z,95022.31
2022-11-04T04:41:32.929Z,95033.25
2022-11-04T04:44:19.982Z,95028.72
2022-11-04T04:46:50.703Z,95027.34
2022-11-04T04:49:17.652Z,95025.19
2022-11-04T04:51:47.364Z,95036.50
2022-11-04T04:54:14.386Z,95023.56
2022-11-04T04:56:41.278Z,95033.25
2022-11-04T04:59:08.399Z,95020.59
2022-11-04T05:01:35.405Z,95027.78
2022-11-04T05:04:02.326Z,95025.38
2022-11-04T05:06:29.165Z,95027.72
2022-11-04T05:08:56.190Z,94966.47
2022-11-04T05:11:24.575Z,95024.50
2022-11-04T05:13:54.127Z,95048.34
2022-11-04T05:16:21.037Z,95045.66
2022-11-04T05:18:48.152Z,95033.84
2022-11-04T05:21:16.436Z,95041.38
2022-11-04T05:23:43.417Z,95033.06
2022-11-04T05:26:10.357Z,95035.97
2022-11-04T05:28:37.175Z,95038.72
2022-11-04T05:31:06.434Z,95035.00
2022-11-04T05:33:33.594Z,95041.50
2022-11-04T05:36:08.622Z,95039.72
2022-11-04T05:38:35.877Z,95061.94
2022-11-04T05:41:03.477Z,95070.19
2022-11-04T05:43:30.605Z,95068.34
2022-11-04T05:45:59.965Z,95061.69
2022-11-04T05:48:27.384Z,95054.16
2022-11-04T05:50:55.145Z,95068.09
2022-11-04T05:53:22.235Z,95067.84
2022-11-04T05:55:49.365Z,95067.84
2022-11-04T05:58:16.216Z,95075.75
2022-11-04T06:00:43.370Z,95078.41
2022-11-04T06:03:13.534Z,95079.78
2022-11-04T06:05:43.287Z,95079.31
2022-11-04T06:08:10.688Z,95076.00
2022-11-04T06:10:37.964Z,95077.94
2022-11-04T06:13:04.785Z,95076.16
2022-11-04T06:15:31.785Z,95008.56
2022-11-04T06:17:58.678Z,95045.00
2022-11-04T06:20:25.537Z,95077.81
2022-11-04T06:22:52.537Z,95051.47
2022-11-04T06:25:19.478Z,95061.53
2022-11-04T06:27:47.108Z,95055.88
2022-11-04T06:30:14.063Z,95066.41
2022-11-04T06:32:41.113Z,95076.88
2022-11-04T06:35:09.060Z,95075.59
2022-11-04T06:37:36.179Z,95083.94
2022-11-04T06:40:03.152Z,95080.13
2022-11-04T06:42:29.993Z,95075.28
2022-11-04T06:44:57.009Z,95087.66
2022-11-04T06:47:25.125Z,95075.91
2022-11-04T06:49:52.247Z,95056.28
2022-11-04T06:52:19.146Z,95076.84
2022-11-04T06:54:48.095Z,95076.03
2022-11-04T06:57:15.048Z,95050.03
2022-11-04T06:59:42.041Z,95060.31
2022-11-04T07:02:11.770Z,95048.25
2022-11-04T07:04:39.989Z,95077.91
2022-11-04T07:07:06.988Z,95069.81
2022-11-04T07:09:35.538Z,95081.13
2022-11-04T07:12:02.565Z,95071.75
2022-11-04T07:14:29.419Z,95060.97
2022-11-04T07:16:56.301Z,95067.59
2022-11-04T07:19:23.219Z,95051.78
2022-11-04T07:21:50.027Z,95038.44
2022-11-04T07:24:17.082Z,95030.41
2022-11-04T07:26:43.913Z,95051.69
2022-11-04T07:29:11.227Z,95037.22
2022-11-04T07:31:40.358Z,95055.47
2022-11-04T07:34:07.362Z,95044.50
2022-11-04T07:36:34.369Z,95027.25
2022-11-04T07:39:02.106Z,94989.66
2022-11-04T07:41:30.164Z,95025.53
2022-11-04T07:43:58.872Z,94977.44
2022-11-04T07:46:25.904Z,95024.06
2022-11-04T07:48:52.806Z,95029.97
2022-11-04T07:51:21.025Z,95026.56
2022-11-04T07:53:47.988Z,95007.00
2022-11-04T07:56:15.944Z,95020.72
2022-11-04T07:58:43.145Z,94994.19
2022-11-04T08:01:14.210Z,95021.09
2022-11-04T08:03:41.501Z,95012.06
2022-11-04T08:06:10.618Z,95004.53
2022-11-04T08:08:38.251Z,94992.81
2022-11-04T08:11:18.844Z,95015.38
2022-11-04T08:13:46.673Z,94992.81
2022-11-04T08:16:17.811Z,95006.88
2022-11-04T08:18:45.072Z,94960.69
2022-11-04T08:21:12.918Z,94991.91
2022-11-04T08:23:40.326Z,94994.84
2022-11-04T08:26:12.342Z,94986.91
2022-11-04T08:28:39.468Z,94995.22
2022-11-04T08:31:19.388Z,94989.09
2022-11-04T08:33:46.754Z,94968.44
2022-11-04T08:36:19.969Z,94981.38
2022-11-04T08:38:47.248Z,94972.03
2022-11-04T08:41:16.895Z,94964.78
2022-11-04T08:43:44.206Z,94973.66
2022-11-04T08:46:11.742Z,94975.28
2022-11-04T08:48:39.933Z,94970.47
2022-11-04T08:51:12.677Z,94965.13
2022-11-04T08:53:39.527Z,94957.91
2022-11-04T08:56:21.728Z,94945.84
2022-11-04T08:58:49.557Z,94960.91
2022-11-04T09:01:17.825Z,94949.63
2022-11-04T09:03:45.175Z,94956.09
2022-11-04T09:06:15.538Z,94951.00
2022-11-04T09:08:43.558Z,94947.78
2022-11-04T09:11:12.722Z,94942.72
2022-11-04T09:13:40.269Z,94939.50
2022-11-04T09:16:08.461Z,94941.13
2022-11-04T09:18:35.794Z,94933.84
2022-11-04T09:21:05.054Z,94930.34
2022-11-04T09:23:32.809Z,94923.38
2022-11-04T09:26:12.047Z,94915.88
2022-11-04T09:28:41.211Z,94901.91
2022-11-04T09:31:11.277Z,94919.91
2022-11-04T09:33:38.805Z,94902.72
2022-11-04T09:36:06.364Z,94897.59
2022-11-04T09:38:33.465Z,94898.66
2022-11-04T09:41:01.096Z,94899.44
2022-11-04T09:46:49.529Z,94897.25
2022-11-04T09:49:17.140Z,94886.22
2022-11-04T09:51:55.639Z,94882.75
2022-11-04T09:54:27.131Z,94868.44
2022-11-04T09:56:57.876Z,94867.88
2022-11-04T09:59:28.989Z,94858.44
2022-11-04T10:02:12.035Z,94861.31
2022-11-04T10:04:52.155Z,94852.34
2022-11-04T10:07:19.054Z,94850.69
2022-11-04T10:09:45.811Z,94854.72
2022-11-04T10:12:16.378Z,94838.31
2022-11-04T10:15:29.248Z,94843.38
2022-11-04T10:18:13.078Z,94818.41
2022-11-04T10:20:55.101Z,94833.31
2022-11-04T10:23:26.618Z,94826.84
2022-11-04T10:26:19.589Z,94808.56
2022-11-04T10:29:08.788Z,94806.09
2022-11-04T10:31:37.555Z,94818.34
2022-11-04T10:34:16.008Z,94793.13
2022-11-04T10:36:46.887Z,94794.13
2022-11-04T10:39:25.991Z,94780.16
2022-11-04T10:41:53.220Z,94777.97
2022-11-04T10:44:30.401Z,94770.38
2022-11-04T10:47:26.580Z,94774.09
2022-11-04T10:50:28.209Z,94776.28
2022-11-04T10:53:25.128Z,94754.19
2022-11-04T10:56:03.077Z,94749.06
2022-11-04T10:58:39.746Z,94712.13
2022-11-04T11:01:29.627Z,94735.25
2022-11-04T11:03:58.047Z,94726.63
2022-11-04T11:06:26.955Z,94709.94
2022-11-04T11:08:58.267Z,94718.41
2022-11-04T11:11:42.272Z,94723.72
2022-11-04T11:14:18.937Z,94706.78
2022-11-04T11:16:46.012Z,94711.03
2022-11-04T11:19:20.018Z,94707.19
2022-11-04T11:21:58.371Z,94699.03
2022-11-04T11:24:45.081Z,94686.53
2022-11-04T11:27:12.395Z,94656.72
2022-11-04T11:29:40.489Z,94676.41
2022-11-04T11:32:43.613Z,94666.88
2022-11-04T11:35:23.785Z,94644.75
2022-11-04T11:37:51.069Z,94634.25
2022-11-04T11:40:35.083Z,94632.06
2022-11-04T11:43:02.613Z,94635.69
2022-11-04T11:45:31.469Z,94654.16
2022-11-04T11:47:58.951Z,94600.09
2022-11-04T11:50:35.276Z,94648.06
2022-11-04T11:53:36.546Z,94639.66
2022-11-04T11:56:36.249Z,94632.38
2022-11-04T12:02:29.074Z,94639.22
2022-11-04T12:11:10.217Z,94621.06
2022-11-04T12:13:48.816Z,94613.19
2022-11-04T12:16:31.538Z,94613.69
2022-11-04T12:19:18.828Z,94613.09
2022-11-04T12:21:54.735Z,94611.41
2022-11-04T12:24:41.310Z,94613.81
2022-11-04T12:27:36.693Z,94597.50
2022-11-04T12:30:19.403Z,94597.91
2022-11-04T12:33:17.769Z,94617.03
2022-11-04T12:36:12.372Z,94606.25
2022-11-04T12:38:58.694Z,94611.44
2022-11-04T12:42:14.269Z,94573.66
2022-11-04T12:44:45.847Z,94601.88
2022-11-04T12:47:34.603Z,94595.31
2022-11-04T12:50:32.292Z,94590.34
2022-11-04T12:53:24.081Z,94589.91
2022-11-04T12:56:14.690Z,94579.63
2022-11-04T12:58:50.542Z,94590.63
2022-11-04T13:01:25.679Z,94578.59
2022-11-04T13:04:03.720Z,94525.53
2022-11-04T13:06:41.388Z,94568.09
2022-11-04T13:09:20.503Z,94574.50
2022-11-04T13:12:04.062Z,94579.13
2022-11-04T13:14:43.413Z,94569.31
2022-11-04T13:17:16.205Z,94589.91
2022-11-04T13:19:50.259Z,94592.09
2022-11-04T13:22:23.802Z,94588.31
2022-11-04T13:24:57.175Z,94591.81
2022-11-04T13:27:36.505Z,94589.22
2022-11-04T13:30:26.293Z,94590.03
2022-11-04T13:32:59.655Z,94584.00
2022-11-04T13:35:40.162Z,94573.72
2022-11-04T13:38:21.977Z,94582.22
2022-11-04T13:41:08.878Z,94592.72
2022-11-04T13:43:41.894Z,94572.31
2022-11-04T13:46:08.769Z,94568.44
2022-11-04T13:48:39.667Z,94579.72
2022-11-04T13:51:14.573Z,94564.94
2022-11-04T13:53:53.914Z,94579.63
2022-11-04T13:56:35.225Z,94566.91
2022-11-04T13:59:22.564Z,94576.13
2022-11-04T14:02:09.757Z,94568.91
2022-11-04T14:04:40.522Z,94570.34
2022-11-04T14:07:10.753Z,94567.13
2022-11-04T14:09:43.585Z,94570.94
2022-11-04T14:12:10.321Z,94560.13
2022-11-04T14:14:38.928Z,94562.34
2022-11-04T14:17:34.488Z,94563.94
2022-11-04T14:20:23.481Z,94567.22
2022-11-04T14:22:54.753Z,94558.13
2022-11-04T14:25:27.357Z,94560.03
2022-11-04T14:28:00.459Z,94568.63
2022-11-04T14:30:30.483Z,94574.03
2022-11-04T14:33:01.289Z,94556.72
2022-11-04T14:35:29.374Z,94556.72
2022-11-04T14:37:58.281Z,94570.03
2022-11-04T14:40:46.851Z,94550.81
2022-11-04T14:43:42.013Z,94568.75
2022-11-04T14:46:12.104Z,94556.53
2022-11-04T14:48:51.956Z,94559.50
2022-11-04T14:51:30.653Z,94562.72
2022-11-04T14:54:08.331Z,94560.31
2022-11-04T14:56:35.446Z,94550.00
2022-11-04T14:59:07.064Z,94548.22
2022-11-04T15:01:40.200Z,94533.94
2022-11-04T15:04:18.382Z,94521.91
2022-11-04T15:07:03.534Z,94520.13
2022-11-04T15:09:33.211Z,94534.31
2022-11-04T15:12:27.677Z,94539.00
2022-11-04T15:14:55.377Z,94520.72
2022-11-04T15:17:24.643Z,94533.09
2022-11-04T15:19:56.419Z,94538.78
2022-11-04T15:22:24.279Z,94551.16
2022-11-04T15:24:51.312Z,94521.56
2022-11-04T15:27:25.049Z,94535.53
2022-11-04T15:30:00.652Z,94545.75
2022-11-04T15:32:27.878Z,94546.63
2022-11-04T15:34:56.948Z,94540.72
2022-11-04T15:37:26.230Z,94539.53
2022-11-04T15:39:56.676Z,94535.28
2022-11-04T15:42:45.521Z,94536.19
2022-11-04T15:45:22.794Z,94553.75
2022-11-04T15:48:10.146Z,94549.22
2022-11-04T15:50:38.601Z,94542.66
2022-11-04T15:53:09.951Z,94528.13
2022-11-04T15:55:38.160Z,94512.81
2022-11-04T15:58:05.106Z,94549.31
2022-11-04T16:00:34.113Z,94554.19
2022-11-04T16:03:01.843Z,94552.06
2022-11-04T16:05:29.817Z,94547.06
2022-11-04T16:08:18.965Z,94558.34
2022-11-04T16:10:46.147Z,94505.56
2022-11-04T16:13:16.113Z,94554.13
2022-11-04T16:15:50.416Z,94542.31
2022-11-04T16:18:35.252Z,94557.25
2022-11-04T16:21:08.981Z,94546.03
2022-11-04T16:23:44.722Z,94539.41
2022-11-04T16:26:12.598Z,94547.16
2022-11-04T16:28:40.865Z,94554.19
2022-11-04T16:31:26.017Z,94554.53
2022-11-04T16:33:52.823Z,94541.44
2022-11-04T16:36:29.702Z,94561.09
2022-11-04T16:39:06.910Z,94559.63
2022-11-04T16:41:37.527Z,94559.16
2022-11-04T16:44:06.238Z,94570.16
2022-11-04T16:46:34.299Z,94536.50
2022-11-04T16:49:02.351Z,94559.00
2022-11-04T16:51:33.491Z,94564.16
2022-11-04T16:54:00.373Z,94569.09
2022-11-04T16:56:27.459Z,94543.69
2022-11-04T16:58:54.804Z,94576.41
2022-11-04T17:01:21.941Z,94569.22
2022-11-04T17:03:49.952Z,94583.97
2022-11-04T17:06:17.275Z,94577.97
2022-11-04T17:08:45.735Z,94585.22
2022-11-04T17:11:12.656Z,94588.75
2022-11-04T17:13:39.789Z,94578.53
2022-11-04T17:16:08.448Z,94589.72
2022-11-04T17:18:36.572Z,94588.19
2022-11-04T17:21:07.276Z,94597.50
2022-11-04T17:23:34.510Z,94528.81
2022-11-04T17:26:01.479Z,94586.03
2022-11-04T17:28:28.571Z,94603.44
2022-11-04T17:30:55.571Z,94594.91
2022-11-04T17:33:22.552Z,94591.13
2022-11-04T17:35:50.820Z,94598.88
2022-11-04T17:38:18.816Z,94580.97
2022-11-04T17:41:04.186Z,94579.88
2022-11-04T17:43:50.220Z,94574.91
2022-11-04T17:46:38.180Z,94583.41
2022-11-04T17:49:07.266Z,94578.16
2022-11-04T17:51:35.347Z,94583.19
2022-11-04T17:54:03.085Z,94583.53
2022-11-04T17:56:31.127Z,94533.03
2022-11-04T17:59:04.004Z,94583.69
2022-11-04T18:01:33.291Z,94581.59
2022-11-04T18:04:00.471Z,94574.06
2022-11-04T18:06:30.992Z,94573.53
2022-11-04T18:08:59.361Z,94573.13
2022-11-04T18:11:47.147Z,94575.22
2022-11-04T18:14:17.189Z,94585.97
2022-11-04T18:16:47.343Z,94568.03
2022-11-04T18:19:16.159Z,94582.25
2022-11-04T18:21:42.970Z,94575.56
2022-11-04T18:24:10.437Z,94577.63
2022-11-04T18:26:40.083Z,94575.22
2022-11-04T18:29:07.193Z,94541.56
2022-11-04T18:31:36.526Z,94583.06
2022-11-04T18:34:07.654Z,94589.56
2022-11-04T18:36:35.676Z,94582.28
2022-11-04T18:39:02.593Z,94558.53
2022-11-04T18:41:29.549Z,94562.00
2022-11-04T18:43:57.353Z,94567.13
2022-11-04T18:46:24.423Z,94585.59
2022-11-04T18:48:52.047Z,94579.19
2022-11-04T18:51:22.411Z,94582.16
2022-11-04T18:53:50.704Z,94588.03
2022-11-04T18:56:20.850Z,94589.66
2022-11-04T18:58:48.692Z,94576.78
2022-11-04T19:01:28.212Z,94574.69
2022-11-04T19:03:55.767Z,94570.97
2022-11-04T19:06:26.185Z,94568.31
2022-11-04T19:09:05.064Z,94587.06
2022-11-04T19:11:39.767Z,94580.66
2022-11-04T19:14:14.302Z,94580.72
2022-11-04T19:16:43.274Z,94575.66
2022-11-04T19:19:15.200Z,94529.63
2022-11-04T19:21:42.329Z,94584.22
2022-11-04T19:24:10.178Z,94591.47
2022-11-04T19:26:37.186Z,94594.19
2022-11-04T19:29:05.873Z,94598.25
2022-11-04T19:31:33.383Z,94595.03
2022-11-04T19:34:05.005Z,94572.78
2022-11-04T19:36:34.046Z,94601.75
2022-11-04T19:39:01.291Z,94608.47
2022-11-04T19:41:47.483Z,94623.81
2022-11-04T19:44:17.909Z,94612.03
2022-11-04T19:46:45.823Z,94621.69
2022-11-04T19:49:13.075Z,94633.78
2022-11-04T19:51:40.536Z,94602.69
2022-11-04T19:54:08.170Z,94637.81
2022-11-04T19:56:36.516Z,94633.53
2022-11-04T19:59:06.487Z,94643.75
2022-11-04T20:01:35.298Z,94574.41
2022-11-04T20:04:03.935Z,94646.16
2022-11-04T20:06:32.243Z,94639.69
2022-11-04T20:09:02.013Z,94640.00
2022-11-04T20:11:29.091Z,94584.34
2022-11-04T20:13:55.893Z,94649.41
2022-11-04T20:16:29.599Z,94642.16
2022-11-04T20:19:00.682Z,94642.16
2022-11-04T20:21:30.490Z,94621.59
2022-11-04T20:23:59.658Z,94641.38
2022-11-04T20:26:28.378Z,94654.00
2022-11-04T20:28:58.494Z,94659.06
2022-11-04T20:31:27.980Z,94637.41
2022-11-04T20:33:55.811Z,94662.59
2022-11-04T20:36:25.768Z,94641.72
2022-11-04T20:39:00.291Z,94638.19
2022-11-04T20:41:28.110Z,94652.41
2022-11-04T20:43:55.963Z,94647.06
2022-11-04T20:46:25.694Z,94647.31
2022-11-04T20:48:54.066Z,94643.06
2022-11-04T20:51:23.307Z,94634.22
2022-11-04T20:53:56.052Z,94635.56
2022-11-04T20:56:25.309Z,94647.31
2022-11-04T20:58:59.019Z,94623.50
2022-11-04T21:01:32.209Z,94574.78
2022-11-04T21:04:03.322Z,94585.50
2022-11-04T21:06:30.801Z,94610.66
2022-11-04T21:08:59.361Z,94638.50
2022-11-04T21:11:31.902Z,94610.66
2022-11-04T21:13:59.853Z,94599.13
2022-11-04T21:16:27.325Z,94621.88
2022-11-04T21:18:54.626Z,94618.72
2022-11-04T21:21:21.454Z,94624.63
2022-11-04T21:23:50.382Z,94620.81
2022-11-04T21:26:23.268Z,94620.81
2022-11-04T21:28:58.693Z,94609.81
2022-11-04T21:31:25.680Z,94572.66
2022-11-04T21:33:53.480Z,94597.75
2022-11-04T21:36:22.407Z,94598.31
2022-11-04T21:38:49.770Z,94596.44
2022-11-04T21:41:22.179Z,94597.25
2022-11-04T21:43:54.174Z,94572.34
2022-11-04T21:46:21.631Z,94588.09
2022-11-04T21:48:48.576Z,94560.81
2022-11-04T21:51:18.555Z,94579.25
2022-11-04T21:53:45.696Z,94577.69
2022-11-04T21:56:18.947Z,94552.75
2022-11-04T21:58:46.102Z,94564.75
2022-11-04T22:01:18.309Z,94569.31
2022-11-04T22:03:49.924Z,94572.31
2022-11-04T22:06:17.049Z,94551.69
2022-11-04T22:08:46.676Z,94557.56
2022-11-04T22:11:14.995Z,94569.38
2022-11-04T22:13:42.042Z,94560.25
2022-11-04T22:16:13.208Z,94564.00
2022-11-04T22:18:40.402Z,94537.78
2022-11-04T22:21:10.312Z,94538.31
2022-11-04T22:23:37.734Z,94546.59
2022-11-04T22:26:27.650Z,94551.16
2022-11-04T22:28:57.073Z,94528.69
2022-11-04T22:31:27.067Z,94558.69
2022-11-04T22:33:55.097Z,94548.47
2022-11-04T22:36:23.325Z,94546.88
2022-11-04T22:38:50.649Z,94546.38
2022-11-04T22:41:23.972Z,94546.31
2022-11-04T22:43:51.042Z,94552.50
2022-11-04T22:46:21.242Z,94541.28
2022-11-04T22:48:48.557Z,94539.94
2022-11-04T22:51:15.668Z,94531.63
2022-11-04T22:53:43.199Z,94538.53
2022-11-04T22:56:12.073Z,94543.91
2022-11-04T22:58:39.676Z,94549.03
2022-11-04T23:01:14.263Z,94538.59
2022-11-04T23:03:41.881Z,94549.59
2022-11-04T23:06:10.265Z,94560.31
2022-11-04T23:08:40.252Z,94548.50
2022-11-04T23:11:28.185Z,94542.63
2022-11-04T23:14:20.456Z,94545.31
2022-11-04T23:17:08.908Z,94535.66
2022-11-04T23:19:37.378Z,94544.81
2022-11-04T23:22:23.428Z,94556.06
2022-11-04T23:25:05.926Z,94536.28
2022-11-04T23:27:52.561Z,94534.94
2022-11-04T23:30:25.741Z,94551.03
2022-11-04T23:33:03.406Z,94557.69
2022-11-04T23:35:56.370Z,94564.16
2022-11-04T23:38:25.166Z,94564.69
2022-11-04T23:41:13.689Z,94582.38
2022-11-04T23:43:41.043Z,94551.31
2022-11-04T23:46:26.452Z,94583.44
2022-11-04T23:49:11.949Z,94589.63
2022-11-04T23:51:57.759Z,94588.81
2022-11-04T23:54:43.617Z,94579.47
2022-11-04T23:57:38.128Z,94569.56
